Time;durP1;ratioP1;P1;durP2;ratioP2;P2;SDS_P1;SDS_P2;PMS_P1;PMS_P2;Temp;Humidity;BMP_temperature;BMP_pressure;BME280_temperature;BME280_humidity;BME280_pressure;Samples;Min_cycle;Max_cycle;Signal;HPM_P1;HPM_P2
2022/01/05 00:01:35;;;;;;;5.07;2.55;;;11.40;86.10;;;;;;5051524;28;20049;-80
2022/01/05 00:04:01;;;;;;;2.80;1.90;;;11.50;86.20;;;;;;5034968;28;20186;-81
2022/01/05 00:06:27;;;;;;;7.18;2.70;;;11.40;87.10;;;;;;5034987;28;20047;-80
2022/01/05 00:08:53;;;;;;;7.88;2.85;;;12.40;88.30;;;;;;5035234;28;20033;-81
2022/01/05 00:11:19;;;;;;;4.30;2.40;;;8.20;86.70;;;;;;5054164;28;20017;-81
2022/01/05 00:13:44;;;;;;;4.28;2.50;;;11.60;87.00;;;;;;5052739;28;20032;-81
2022/01/05 00:16:12;;;;;;;3.95;2.40;;;11.40;86.10;;;;;;5053064;28;20021;-81
2022/01/05 00:18:38;;;;;;;4.85;2.70;;;11.50;86.00;;;;;;5018359;28;20298;-81
2022/01/05 00:21:04;;;;;;;7.47;2.10;;;13.20;86.90;;;;;;5035075;28;20269;-81
2022/01/05 00:23:31;;;;;;;8.63;2.38;;;11.60;85.90;;;;;;5034671;28;20043;-79
2022/01/05 00:25:59;;;;;;;3.75;2.13;;;11.60;86.20;;;;;;5034444;28;20021;-81
2022/01/05 00:28:25;;;;;;;3.72;1.95;;;11.60;86.40;;;;;;5035132;28;20059;-80
2022/01/05 00:34:20;;;;;;;3.05;2.05;;;12.20;86.90;;;;;;5055391;28;20054;-80
2022/01/05 00:36:48;;;;;;;3.75;2.30;;;11.50;88.40;;;;;;5038743;28;20033;-82
2022/01/05 00:39:14;;;;;;;3.92;1.95;;;11.70;86.80;;;;;;5057723;28;20017;-82
2022/01/05 00:41:42;;;;;;;3.97;1.88;;;11.70;86.20;;;;;;5056399;28;20032;-80
2022/01/05 00:44:09;;;;;;;4.60;2.10;;;11.80;86.70;;;;;;5056949;28;20071;-82
2022/01/05 00:46:35;;;;;;;3.50;2.30;;;11.80;87.00;;;;;;5054880;28;20235;-80
2022/01/05 00:49:00;;;;;;;5.00;2.30;;;11.80;88.20;;;;;;5018458;28;20025;-82
2022/01/05 00:51:26;;;;;;;3.33;2.05;;;11.80;88.00;;;;;;5033941;28;20106;-80
2022/01/05 00:53:53;;;;;;;2.92;1.77;;;11.70;88.80;;;;;;5051077;28;20017;-80
2022/01/05 00:56:19;;;;;;;2.47;2.00;;;11.70;88.80;;;;;;5054044;28;20029;-80
2022/01/05 00:58:46;;;;;;;4.10;2.30;;;11.70;89.40;;;;;;5054873;28;20021;-80
2022/01/05 01:01:15;;;;;;;4.78;2.65;;;11.70;89.70;;;;;;5055239;28;20078;-80
2022/01/05 01:03:42;;;;;;;3.03;1.83;;;11.70;89.80;;;;;;5058896;28;20025;-80
2022/01/05 01:06:10;;;;;;;2.50;2.00;;;11.60;89.50;;;;;;5042932;28;20033;-81
2022/01/05 01:08:37;;;;;;;4.32;2.28;;;11.70;89.30;;;;;;5065881;28;20090;-82
2022/01/05 01:11:13;;;;;;;3.80;2.03;;;11.70;89.40;;;;;;5044642;28;20033;-82
2022/01/05 01:13:40;;;;;;;4.68;2.40;;;11.70;89.40;;;;;;5038575;28;20446;-81
2022/01/05 01:16:07;;;;;;;4.15;1.95;;;11.90;89.70;;;;;;5038227;28;20203;-82
2022/01/05 01:18:35;;;;;;;3.95;2.20;;;11.70;88.80;;;;;;5057453;28;20055;-80
2022/01/05 01:21:02;;;;;;;2.80;1.85;;;11.70;89.10;;;;;;5055967;28;20273;-81
2022/01/05 01:23:28;;;;;;;3.55;2.67;;;11.70;88.70;;;;;;5054899;28;20512;-79
2022/01/05 01:25:58;;;;;;;2.65;1.83;;;11.70;87.80;;;;;;5051763;28;20029;-81
2022/01/05 01:28:24;;;;;;;4.75;2.28;;;11.70;87.70;;;;;;5036222;28;20032;-83
2022/01/05 01:30:49;;;;;;;3.20;2.15;;;9.70;85.20;;;;;;5022775;28;20047;-81
2022/01/05 01:33:15;;;;;;;3.10;1.90;;;11.80;85.00;;;;;;5041314;28;20116;-82
2022/01/05 01:35:41;;;;;;;2.03;1.60;;;11.90;84.90;;;;;;5059382;28;20048;-79
2022/01/05 01:38:09;;;;;;;3.88;1.98;;;11.90;84.50;;;;;;5060738;28;20028;-82
2022/01/05 01:40:36;;;;;;;4.13;2.38;;;11.90;83.40;;;;;;5060520;28;20033;-81
2022/01/05 01:43:01;;;;;;;11.05;2.03;;;12.00;83.80;;;;;;5059192;28;20013;-80
2022/01/05 01:45:30;;;;;;;3.40;1.92;;;12.10;83.10;;;;;;5058180;28;20072;-81
2022/01/05 01:47:56;;;;;;;2.33;1.75;;;12.10;83.60;;;;;;5057161;28;20028;-81
2022/01/05 01:50:22;;;;;;;2.90;1.77;;;12.10;84.30;;;;;;5061225;28;20025;-80
2022/01/05 01:52:48;;;;;;;3.05;1.85;;;12.10;84.40;;;;;;5039676;28;20037;-81
2022/01/05 01:55:14;;;;;;;2.00;1.70;;;12.00;85.10;;;;;;5055723;28;20033;-81
2022/01/05 01:57:43;;;;;;;2.70;1.77;;;12.10;84.50;;;;;;5059914;28;20025;-80
2022/01/05 02:00:11;;;;;;;6.75;1.95;;;12.10;84.70;;;;;;5036088;28;20029;-80
2022/01/05 02:02:38;;;;;;;1.48;1.33;;;12.00;85.20;;;;;;5055188;28;20051;-81
2022/01/05 02:05:06;;;;;;;2.42;1.80;;;12.10;84.70;;;;;;5056004;28;20033;-80
2022/01/05 02:07:32;;;;;;;2.83;1.50;;;12.00;85.40;;;;;;5056120;28;20021;-81
2022/01/05 02:10:04;;;;;;;3.65;2.67;;;12.00;85.60;;;;;;5053994;28;20163;-80
2022/01/05 02:12:31;;;;;;;3.20;1.70;;;12.00;86.00;;;;;;5052912;28;20458;-80
2022/01/05 02:15:01;;;;;;;1.85;1.50;;;12.00;86.80;;;;;;5035520;28;20043;-82
2022/01/05 02:17:47;;;;;;;4.55;1.80;;;11.90;86.60;;;;;;5034492;28;20044;-79
2022/01/05 02:20:16;;;;;;;5.15;1.70;;;14.70;88.90;;;;;;5034008;28;20040;-82
2022/01/05 02:22:44;;;;;;;2.72;1.30;;;11.80;88.30;;;;;;5048797;28;20079;-82
2022/01/05 02:25:10;;;;;;;3.05;1.25;;;11.70;87.70;;;;;;5050013;28;20044;-80
2022/01/05 02:27:41;;;;;;;1.67;1.48;;;11.80;88.10;;;;;;5050742;28;20017;-81
2022/01/05 02:30:13;;;;;;;6.65;2.70;;;11.80;88.30;;;;;;5051983;28;20072;-80
2022/01/05 02:32:40;;;;;;;2.83;1.60;;;11.80;87.90;;;;;;5052889;28;20017;-82
2022/01/05 02:35:08;;;;;;;2.53;1.60;;;11.80;88.40;;;;;;5032183;28;20033;-82
2022/01/05 02:37:46;;;;;;;2.53;1.73;;;11.80;88.30;;;;;;5049220;28;20407;-80
2022/01/05 02:40:15;;;;;;;2.70;1.77;;;11.90;88.10;;;;;;5046250;28;20079;-80
2022/01/05 02:42:42;;;;;;;2.67;1.60;;;11.80;88.80;;;;;;5029525;28;20028;-81
2022/01/05 02:45:10;;;;;;;2.13;1.50;;;12.90;90.20;;;;;;5012690;28;20517;-81
2022/01/05 02:47:36;;;;;;;3.63;1.50;;;12.10;89.90;;;;;;5048547;28;20060;-79
2022/01/05 02:50:07;;;;;;;2.38;1.50;;;11.80;89.50;;;;;;5032961;28;20050;-80
2022/01/05 02:52:34;;;;;;;2.13;1.50;;;11.80;89.00;;;;;;5032318;28;20100;-80
2022/01/05 02:55:02;;;;;;;3.00;1.35;;;10.30;89.90;;;;;;5031510;28;20130;-81
2022/01/05 02:57:28;;;;;;;1.92;1.42;;;11.90;89.50;;;;;;5051811;28;20485;-81
2022/01/05 02:59:57;;;;;;;2.97;1.70;;;11.80;89.10;;;;;;5032552;28;20119;-82
2022/01/05 03:02:25;;;;;;;2.30;1.45;;;11.90;89.40;;;;;;5032738;28;20356;-80
2022/01/05 03:04:52;;;;;;;2.25;1.40;;;11.80;89.30;;;;;;5031110;28;20124;-82
2022/01/05 03:07:24;;;;;;;1.52;1.20;;;11.80;89.40;;;;;;5029792;28;20083;-82
2022/01/05 03:09:50;;;;;;;2.00;1.30;;;11.80;89.20;;;;;;5049889;28;20025;-81
2022/01/05 03:12:19;;;;;;;5.00;1.88;;;11.80;89.70;;;;;;5054851;28;20017;-80
2022/01/05 03:14:46;;;;;;;2.10;1.40;;;11.90;89.80;;;;;;5054713;28;20107;-81
2022/01/05 03:17:12;;;;;;;2.55;1.25;;;11.90;89.40;;;;;;5059083;28;20021;-81
2022/01/05 03:19:37;;;;;;;3.33;1.40;;;11.90;88.60;;;;;;5060082;28;20018;-83
2022/01/05 03:22:07;;;;;;;1.40;1.30;;;11.80;89.40;;;;;;5039260;28;20029;-81
2022/01/05 03:24:35;;;;;;;2.50;1.20;;;11.40;88.30;;;;;;5055155;28;20013;-80
2022/01/05 03:27:01;;;;;;;2.70;1.55;;;11.90;88.50;;;;;;5036664;28;20063;-80
2022/01/05 03:29:27;;;;;;;1.92;1.60;;;11.80;89.10;;;;;;5054133;28;20021;-81
2022/01/05 03:31:52;;;;;;;4.38;1.83;;;11.90;88.90;;;;;;5037054;28;20025;-81
2022/01/05 03:34:20;;;;;;;3.15;1.83;;;11.90;88.50;;;;;;5040804;28;20040;-81
2022/01/05 03:36:48;;;;;;;2.85;1.65;;;11.90;89.10;;;;;;5058526;28;20028;-82
2022/01/05 03:39:16;;;;;;;4.18;1.73;;;12.00;89.30;;;;;;5060243;28;20025;-82
2022/01/05 03:41:48;;;;;;;2.25;1.60;;;12.00;88.70;;;;;;5061012;28;20021;-80
2022/01/05 03:44:18;;;;;;;3.22;1.73;;;12.10;90.00;;;;;;5062683;28;20055;-80
2022/01/05 03:46:44;;;;;;;2.95;1.70;;;12.00;88.70;;;;;;5043532;28;20393;-82
2022/01/05 03:49:10;;;;;;;1.92;1.50;;;12.00;88.40;;;;;;5061118;28;20106;-82
2022/01/05 03:51:37;;;;;;;3.28;1.52;;;12.00;88.10;;;;;;5061467;28;20056;-81
2022/01/05 03:54:09;;;;;;;4.47;2.00;;;12.00;88.90;;;;;;5061146;28;20017;-82
2022/01/05 03:56:37;;;;;;;2.85;1.55;;;12.10;88.60;;;;;;5058734;28;20025;-81
2022/01/05 03:59:03;;;;;;;2.22;1.50;;;12.20;89.00;;;;;;5057910;28;20455;-81
2022/01/05 04:01:33;;;;;;;2.80;1.35;;;12.20;89.10;;;;;;5041641;28;20021;-82
2022/01/05 04:03:59;;;;;;;4.63;1.73;;;12.60;88.20;;;;;;5053738;28;20670;-80
2022/01/05 04:06:25;;;;;;;3.47;1.60;;;15.10;90.20;;;;;;5053233;28;20615;-80
2022/01/05 04:08:51;;;;;;;2.50;1.50;;;12.40;89.10;;;;;;5033741;28;20109;-79
2022/01/05 04:11:16;;;;;;;3.63;1.63;;;12.30;88.20;;;;;;5037715;28;20036;-80
2022/01/05 04:13:44;;;;;;;5.20;1.35;;;12.50;87.80;;;;;;5057166;28;20021;-80
2022/01/05 04:16:09;;;;;;;2.58;1.40;;;11.50;85.60;;;;;;5057599;28;20044;-80
2022/01/05 04:18:36;;;;;;;2.40;1.35;;;12.50;87.20;;;;;;5039891;28;20017;-80
2022/01/05 04:21:03;;;;;;;4.63;1.60;;;12.50;86.90;;;;;;5050289;28;20578;-79
2022/01/05 04:23:29;;;;;;;2.83;1.50;;;12.50;86.90;;;;;;5043049;28;20083;-80
2022/01/05 04:25:56;;;;;;;3.25;1.50;;;12.50;87.60;;;;;;5060022;28;20041;-80
2022/01/05 04:28:23;;;;;;;1.92;1.50;;;12.50;86.70;;;;;;5054750;28;20052;-82
2022/01/05 04:30:48;;;;;;;4.45;1.42;;;12.50;86.00;;;;;;5056707;28;20439;-81
2022/01/05 04:33:14;;;;;;;2.63;1.52;;;12.50;86.20;;;;;;5057132;28;20033;-82
2022/01/05 04:35:40;;;;;;;3.47;1.55;;;12.50;85.70;;;;;;5056604;28;20674;-81
2022/01/05 04:38:06;;;;;;;2.03;1.45;;;12.50;85.30;;;;;;5058386;28;20037;-81
2022/01/05 04:40:34;;;;;;;3.97;1.45;;;12.50;85.30;;;;;;5058475;28;20013;-82
2022/01/05 04:43:00;;;;;;;2.65;1.40;;;12.50;85.40;;;;;;5035974;28;20041;-79
2022/01/05 04:45:26;;;;;;;1.60;1.20;;;12.50;85.90;;;;;;5052033;28;20048;-83
2022/01/05 04:47:56;;;;;;;1.45;1.20;;;12.20;86.30;;;;;;5052653;28;20249;-81
2022/01/05 04:50:22;;;;;;;2.20;1.30;;;12.60;85.20;;;;;;5034910;28;20029;-82
2022/01/05 04:52:50;;;;;;;3.40;2.05;;;12.60;85.90;;;;;;5058974;28;20079;-81
2022/01/05 04:55:17;;;;;;;1.95;1.50;;;12.60;85.00;;;;;;5057697;28;20025;-80
2022/01/05 04:57:43;;;;;;;1.65;1.27;;;12.70;84.70;;;;;;5057797;28;20024;-82
2022/01/05 05:00:09;;;;;;;2.08;1.42;;;12.70;85.50;;;;;;5059235;28;20064;-82
2022/01/05 05:02:35;;;;;;;1.83;1.33;;;12.70;84.90;;;;;;5059426;28;20032;-81
2022/01/05 05:05:01;;;;;;;3.33;0.90;;;12.70;85.20;;;;;;5058967;28;20067;-82
2022/01/05 05:07:28;;;;;;;1.92;1.30;;;12.70;84.80;;;;;;5058583;28;20033;-81
2022/01/05 05:09:55;;;;;;;4.65;2.45;;;12.70;84.90;;;;;;5060280;28;20025;-81
2022/01/05 05:12:26;;;;;;;1.75;1.33;;;12.80;84.30;;;;;;5060551;28;20092;-81
2022/01/05 05:15:01;;;;;;;2.28;1.25;;;12.80;84.50;;;;;;5062318;28;20029;-82
2022/01/05 05:17:28;;;;;;;1.58;1.15;;;14.10;85.30;;;;;;5041572;28;20146;-81
2022/01/05 05:19:54;;;;;;;2.25;1.65;;;12.80;84.30;;;;;;5056846;28;20514;-82
2022/01/05 05:22:20;;;;;;;2.13;1.20;;;12.80;84.90;;;;;;5053842;28;20027;-79
2022/01/05 05:24:46;;;;;;;2.08;1.48;;;12.80;85.20;;;;;;5055396;28;20017;-81
2022/01/05 05:27:11;;;;;;;2.45;1.50;;;12.70;85.50;;;;;;5058704;28;20087;-82
2022/01/05 05:29:38;;;;;;;2.20;1.10;;;12.70;85.00;;;;;;5053591;28;20560;-82
2022/01/05 05:32:05;;;;;;;3.25;1.50;;;12.70;84.90;;;;;;5036940;28;20036;-83
2022/01/05 05:34:32;;;;;;;4.28;1.08;;;12.90;85.40;;;;;;5060123;28;20086;-81
2022/01/05 05:36:58;;;;;;;2.15;1.10;;;9.90;83.20;;;;;;5055719;28;20029;-82
2022/01/05 05:39:25;;;;;;;2.03;1.40;;;12.80;84.40;;;;;;5056151;28;20044;-81
2022/01/05 05:42:04;;;;;;;2.75;1.20;;;13.10;84.30;;;;;;5053180;28;20025;-80
2022/01/05 05:44:30;;;;;;;1.00;0.90;;;12.40;84.20;;;;;;5052531;28;20025;-82
2022/01/05 05:46:56;;;;;;;1.67;1.30;;;12.90;85.00;;;;;;5041007;28;20025;-83
2022/01/05 05:49:21;;;;;;;3.03;1.10;;;12.80;85.40;;;;;;5057249;28;20713;-80
2022/01/05 05:51:47;;;;;;;1.40;1.10;;;12.90;85.70;;;;;;5059606;28;20349;-82
2022/01/05 05:54:13;;;;;;;4.38;1.20;;;13.80;86.90;;;;;;5061088;28;20024;-81
2022/01/05 05:56:38;;;;;;;3.47;1.38;;;12.80;86.20;;;;;;5056336;28;20529;-83
2022/01/05 05:59:07;;;;;;;1.30;1.20;;;12.70;86.20;;;;;;5058583;28;20029;-81
2022/01/05 06:01:33;;;;;;;1.88;1.13;;;12.70;86.00;;;;;;5056705;28;20025;-81
2022/01/05 06:03:59;;;;;;;1.50;1.00;;;12.80;86.40;;;;;;5048606;28;20289;-80
2022/01/05 06:06:27;;;;;;;1.10;0.95;;;12.50;87.30;;;;;;5054786;28;20025;-81
2022/01/05 06:08:56;;;;;;;1.33;0.98;;;12.70;86.00;;;;;;5062433;28;20040;-81
2022/01/05 06:11:23;;;;;;;1.48;0.85;;;12.90;85.80;;;;;;5065809;28;20025;-82
2022/01/05 06:13:50;;;;;;;1.98;1.10;;;12.80;87.20;;;;;;5063139;28;20021;-80
2022/01/05 06:16:18;;;;;;;0.93;0.80;;;12.80;87.10;;;;;;5063375;28;20017;-80
2022/01/05 06:18:44;;;;;;;2.13;1.00;;;12.90;85.80;;;;;;5058724;28;20099;-81
2022/01/05 06:21:10;;;;;;;2.55;0.90;;;12.50;85.90;;;;;;5035720;28;20052;-81
2022/01/05 06:23:37;;;;;;;2.20;1.08;;;12.90;86.00;;;;;;5054666;28;20033;-80
2022/01/05 06:26:05;;;;;;;1.77;1.20;;;12.90;86.20;;;;;;5055608;28;20138;-81
2022/01/05 06:28:32;;;;;;;2.60;0.90;;;12.90;87.20;;;;;;5053840;28;20032;-80
2022/01/05 06:31:04;;;;;;;1.58;0.90;;;12.90;86.90;;;;;;5057081;28;20048;-80
2022/01/05 06:33:30;;;;;;;1.17;0.90;;;12.90;86.80;;;;;;5056881;28;20090;-80
2022/01/05 06:35:56;;;;;;;1.30;0.98;;;12.90;87.50;;;;;;5059041;28;20052;-80
2022/01/05 06:38:22;;;;;;;1.13;0.90;;;12.80;86.80;;;;;;5057217;28;20029;-82
2022/01/05 06:40:49;;;;;;;1.90;1.27;;;12.90;86.40;;;;;;5054543;28;20025;-80
2022/01/05 06:43:15;;;;;;;2.45;1.20;;;12.90;86.60;;;;;;5055155;28;20075;-81
2022/01/05 06:45:42;;;;;;;3.88;1.42;;;12.80;87.10;;;;;;5038488;28;20032;-80
2022/01/05 06:48:10;;;;;;;1.40;1.27;;;12.80;87.30;;;;;;5056151;28;20051;-81
2022/01/05 06:50:38;;;;;;;4.63;1.40;;;12.80;87.30;;;;;;5032270;28;20349;-81
2022/01/05 06:53:08;;;;;;;5.07;1.27;;;12.80;88.00;;;;;;5018386;28;20053;-80
2022/01/05 06:55:33;;;;;;;1.67;1.15;;;12.80;88.20;;;;;;5039654;28;20052;-80
2022/01/05 06:58:00;;;;;;;4.03;1.50;;;12.70;87.80;;;;;;5021600;28;20036;-82
2022/01/05 07:00:34;;;;;;;2.22;1.48;;;12.70;87.70;;;;;;5039481;28;20064;-82
2022/01/05 07:03:10;;;;;;;1.52;1.35;;;12.80;87.80;;;;;;5039935;28;20447;-82
2022/01/05 07:05:38;;;;;;;4.53;1.67;;;12.90;87.40;;;;;;5034183;28;20041;-81
2022/01/05 07:08:04;;;;;;;1.33;1.23;;;12.70;87.70;;;;;;5035582;28;20030;-80
2022/01/05 07:10:30;;;;;;;2.05;1.23;;;12.90;87.50;;;;;;5015817;28;20044;-81
2022/01/05 07:12:56;;;;;;;2.60;1.58;;;12.90;89.30;;;;;;5035569;28;20376;-80
2022/01/05 07:15:22;;;;;;;3.28;2.00;;;12.80;87.40;;;;;;5016941;28;20121;-80
2022/01/05 07:17:58;;;;;;;3.33;1.92;;;12.30;86.80;;;;;;5032597;28;20030;-82
2022/01/05 07:20:25;;;;;;;4.85;2.08;;;12.80;86.80;;;;;;5030962;28;20036;-81
2022/01/05 07:22:53;;;;;;;1.98;1.73;;;12.80;86.50;;;;;;5036040;28;20025;-82
2022/01/05 07:25:24;;;;;;;2.75;1.83;;;12.80;86.70;;;;;;5000922;28;20079;-82
2022/01/05 07:27:51;;;;;;;3.15;1.80;;;12.80;85.90;;;;;;5032556;28;20029;-81
2022/01/05 07:30:21;;;;;;;2.90;2.28;;;12.80;86.00;;;;;;4984249;28;20345;-81
2022/01/05 07:32:51;;;;;;;3.97;2.20;;;12.80;85.90;;;;;;5030928;28;20029;-82
2022/01/05 07:35:17;;;;;;;4.20;1.73;;;12.80;85.50;;;;;;5028399;28;20053;-82
2022/01/05 07:37:44;;;;;;;3.13;1.80;;;12.90;85.30;;;;;;5031184;28;20036;-81
2022/01/05 07:40:10;;;;;;;6.53;2.53;;;12.90;84.90;;;;;;5031623;28;20075;-80
2022/01/05 07:42:38;;;;;;;7.10;2.53;;;13.00;84.60;;;;;;5035729;28;20017;-82
2022/01/05 07:45:06;;;;;;;3.63;1.90;;;13.00;84.30;;;;;;5013580;28;20075;-80
2022/01/05 07:47:32;;;;;;;2.60;1.60;;;12.90;83.50;;;;;;4994366;28;20623;-81
2022/01/05 07:49:57;;;;;;;5.45;2.72;;;13.00;82.80;;;;;;5025620;28;20121;-81
2022/01/05 07:52:23;;;;;;;6.60;2.95;;;13.10;83.40;;;;;;5034191;28;20033;-81
2022/01/05 07:54:52;;;;;;;6.03;2.10;;;13.10;83.40;;;;;;5031978;28;20122;-80
2022/01/05 07:57:18;;;;;;;5.93;2.17;;;13.00;83.30;;;;;;5057232;28;20025;-83
2022/01/05 07:59:43;;;;;;;4.28;2.30;;;13.10;83.40;;;;;;5057653;28;20261;-81
2022/01/05 08:02:09;;;;;;;3.08;1.75;;;13.10;83.80;;;;;;5056081;28;20059;-83
2022/01/05 08:04:39;;;;;;;6.93;2.80;;;13.00;83.90;;;;;;5054496;28;20041;-82
2022/01/05 08:07:08;;;;;;;5.13;3.65;;;12.90;84.10;;;;;;5040287;28;20025;-81
2022/01/05 08:09:34;;;;;;;3.60;2.42;;;12.90;84.50;;;;;;5065448;28;20116;-80
2022/01/05 08:12:00;;;;;;;6.85;3.35;;;14.60;85.90;;;;;;5063836;28;20379;-80
2022/01/05 08:14:26;;;;;;;3.67;2.40;;;13.00;84.90;;;;;;5067022;28;20040;-80
2022/01/05 08:16:51;;;;;;;3.58;2.20;;;12.90;84.80;;;;;;5065318;28;20077;-80
2022/01/05 08:19:18;;;;;;;5.10;3.00;;;12.80;85.10;;;;;;5066062;28;20033;-80
2022/01/05 08:21:51;;;;;;;7.78;4.53;;;12.90;84.80;;;;;;5046603;28;20029;-81
2022/01/05 08:24:18;;;;;;;6.03;2.75;;;13.00;84.20;;;;;;5038161;28;20245;-79
2022/01/05 08:26:58;;;;;;;3.92;3.10;;;13.00;84.60;;;;;;5056372;28;20018;-81
2022/01/05 08:29:29;;;;;;;6.55;2.75;;;13.60;83.70;;;;;;5056584;28;20152;-78
2022/01/05 08:31:55;;;;;;;2.35;2.00;;;13.10;83.30;;;;;;5059814;28;20029;-80
2022/01/05 08:34:22;;;;;;;8.10;3.17;;;13.00;82.80;;;;;;5046978;28;20023;-80
2022/01/05 08:36:50;;;;;;;19.63;9.80;;;13.10;82.40;;;;;;5062234;28;20040;-79
2022/01/05 08:39:17;;;;;;;13.52;4.35;;;13.10;82.70;;;;;;5029892;28;20033;-85
2022/01/05 08:41:44;;;;;;;5.15;2.45;;;13.10;83.00;;;;;;5042672;28;20021;-79
2022/01/05 08:44:11;;;;;;;5.97;2.30;;;13.10;82.20;;;;;;5066807;28;20043;-82
2022/01/05 08:46:42;;;;;;;3.30;2.50;;;13.20;82.20;;;;;;5042074;28;20029;-82
2022/01/05 08:49:10;;;;;;;7.85;2.42;;;13.20;81.90;;;;;;5060271;28;20092;-80
2022/01/05 08:51:39;;;;;;;4.35;2.47;;;13.20;81.20;;;;;;5066572;28;20041;-78
2022/01/05 08:54:11;;;;;;;4.15;2.40;;;13.30;82.00;;;;;;5056510;28;20017;-80
2022/01/05 08:56:38;;;;;;;3.58;2.38;;;13.40;81.00;;;;;;5058369;28;20013;-81
2022/01/05 08:59:06;;;;;;;5.10;2.78;;;13.50;81.10;;;;;;5058970;28;20025;-84
2022/01/05 09:01:35;;;;;;;6.05;3.30;;;13.60;80.20;;;;;;5040980;28;20021;-83
2022/01/05 09:04:04;;;;;;;4.05;2.65;;;13.10;81.10;;;;;;5060893;28;20043;-82
2022/01/05 09:06:30;;;;;;;10.15;7.60;;;13.50;80.70;;;;;;5058371;28;20029;-83
2022/01/05 09:08:59;;;;;;;6.32;3.17;;;13.60;80.90;;;;;;5044062;28;20040;-80
2022/01/05 09:11:27;;;;;;;5.80;2.92;;;13.60;81.70;;;;;;5064162;28;20036;-80
2022/01/05 09:13:59;;;;;;;3.95;2.67;;;13.60;80.90;;;;;;5057803;28;20009;-79
2022/01/05 09:16:29;;;;;;;3.90;2.25;;;13.70;80.10;;;;;;5055822;28;20383;-81
2022/01/05 09:18:57;;;;;;;3.78;2.03;;;13.70;79.50;;;;;;5059466;28;20152;-83
2022/01/05 09:21:23;;;;;;;5.07;2.80;;;13.70;79.40;;;;;;5049877;28;20025;-80
2022/01/05 09:23:52;;;;;;;8.23;2.75;;;13.70;79.50;;;;;;5050323;28;20031;-79
2022/01/05 09:26:18;;;;;;;4.18;2.40;;;13.60;79.20;;;;;;5056981;28;20064;-80
2022/01/05 09:28:52;;;;;;;5.65;2.80;;;13.90;78.50;;;;;;5053513;28;20017;-83
2022/01/05 09:31:21;;;;;;;8.32;3.83;;;13.80;78.60;;;;;;5045248;28;20033;-82
2022/01/05 09:33:52;;;;;;;9.27;4.45;;;13.80;79.40;;;;;;5048727;28;20047;-82
2022/01/05 09:36:29;;;;;;;6.15;3.13;;;13.90;78.60;;;;;;5030391;28;20025;-84
2022/01/05 09:41:57;;;;;;;6.38;2.97;;;14.10;77.20;;;;;;5043010;28;20100;-87
2022/01/05 09:44:38;;;;;;;5.03;2.63;;;14.20;76.50;;;;;;5048558;28;20025;-80
2022/01/05 09:47:44;;;;;;;6.55;2.85;;;14.30;76.00;;;;;;5056345;28;20037;-83
2022/01/05 09:50:12;;;;;;;7.25;2.65;;;14.30;76.30;;;;;;5042796;28;20711;-79
2022/01/05 09:52:42;;;;;;;3.70;2.05;;;14.40;76.70;;;;;;5039597;28;20037;-83
2022/01/05 09:55:13;;;;;;;10.30;4.47;;;14.50;75.30;;;;;;5040617;28;20530;-84
2022/01/05 09:57:41;;;;;;;6.00;2.55;;;14.50;75.90;;;;;;5039975;28;20667;-82
2022/01/05 10:00:08;;;;;;;4.32;2.20;;;14.30;76.50;;;;;;5040656;28;20036;-84
2022/01/05 10:02:34;;;;;;;5.10;2.08;;;14.20;76.90;;;;;;5022426;28;20022;-79
2022/01/05 10:05:01;;;;;;;3.47;1.90;;;14.30;76.90;;;;;;5040151;28;20442;-81
2022/01/05 10:07:26;;;;;;;6.38;2.35;;;14.30;75.70;;;;;;5022112;28;20029;-85
2022/01/05 10:09:52;;;;;;;4.38;2.92;;;14.40;77.00;;;;;;5040034;28;20098;-80
2022/01/05 10:12:20;;;;;;;4.22;1.92;;;14.70;76.30;;;;;;5039494;28;20341;-81
2022/01/05 10:14:47;;;;;;;3.40;2.47;;;14.70;74.80;;;;;;5040931;28;20385;-79
2022/01/05 10:17:24;;;;;;;6.50;2.88;;;14.10;74.00;;;;;;5022581;28;20496;-80
2022/01/05 10:20:05;;;;;;;3.03;2.03;;;14.90;73.90;;;;;;5021667;28;20017;-83
2022/01/05 10:22:36;;;;;;;2.38;1.58;;;14.90;74.10;;;;;;5039555;28;20313;-83
2022/01/05 10:25:04;;;;;;;3.63;2.15;;;14.70;73.90;;;;;;5042600;28;20017;-84
2022/01/05 10:27:30;;;;;;;4.13;1.90;;;14.80;74.50;;;;;;5039308;28;20025;-82
2022/01/05 10:30:11;;;;;;;4.63;2.20;;;14.80;73.70;;;;;;5039470;28;20314;-85
2022/01/05 10:32:37;;;;;;;5.15;2.10;;;14.80;73.50;;;;;;5039815;28;20025;-81
2022/01/05 10:35:16;;;;;;;5.25;2.10;;;14.50;74.30;;;;;;5039763;28;20392;-84
2022/01/05 10:37:45;;;;;;;4.47;2.08;;;14.40;75.40;;;;;;5039620;28;20082;-85
2022/01/05 10:40:18;;;;;;;7.00;2.63;;;14.50;75.20;;;;;;5039818;28;20028;-81
2022/01/05 10:42:44;;;;;;;6.82;2.42;;;14.40;75.50;;;;;;5039797;28;20198;-84
2022/01/05 10:45:13;;;;;;;4.47;2.70;;;14.30;75.70;;;;;;5039180;28;20048;-88
2022/01/05 10:47:38;;;;;;;5.18;2.58;;;14.20;75.10;;;;;;5038938;28;20024;-83
2022/01/05 10:50:06;;;;;;;4.70;2.15;;;14.10;76.10;;;;;;5038618;28;20471;-85
2022/01/05 10:52:34;;;;;;;7.18;2.40;;;14.10;76.40;;;;;;5003081;28;20081;-83
2022/01/05 10:55:18;;;;;;;4.72;2.60;;;14.00;76.60;;;;;;5018743;28;20033;-83
2022/01/05 10:58:05;;;;;;;5.18;2.25;;;14.10;77.10;;;;;;5018765;28;20237;-83
2022/01/05 11:00:36;;;;;;;5.82;2.08;;;14.00;76.70;;;;;;5019374;28;20032;-81
2022/01/05 11:03:18;;;;;;;6.60;2.40;;;14.00;76.10;;;;;;5019858;28;20021;-84
2022/01/05 11:06:07;;;;;;;4.65;2.03;;;14.00;76.50;;;;;;5020192;28;20018;-85
2022/01/05 11:08:57;;;;;;;5.85;2.00;;;14.10;75.80;;;;;;5019501;28;20017;-86
2022/01/05 11:11:39;;;;;;;6.60;2.72;;;14.20;75.40;;;;;;5001734;28;20029;-83
2022/01/05 11:14:09;;;;;;;4.75;2.13;;;14.30;75.30;;;;;;5001265;28;20038;-84
2022/01/05 11:16:40;;;;;;;2.72;1.50;;;13.80;75.00;;;;;;5004240;28;20037;-86
2022/01/05 11:19:29;;;;;;;4.65;1.80;;;14.30;75.00;;;;;;5024152;28;20304;-84
2022/01/05 11:22:07;;;;;;;4.18;1.80;;;14.30;75.00;;;;;;5008103;28;20025;-83
2022/01/05 11:24:35;;;;;;;4.13;2.00;;;14.30;75.70;;;;;;5023218;28;20029;-85
2022/01/05 11:27:02;;;;;;;3.03;1.55;;;14.50;75.60;;;;;;5020900;28;20057;-84
2022/01/05 11:29:28;;;;;;;4.70;2.25;;;14.60;74.60;;;;;;5019877;28;20036;-86
2022/01/05 11:31:57;;;;;;;5.55;1.73;;;14.60;74.70;;;;;;5019625;28;20029;-84
2022/01/05 11:34:23;;;;;;;5.03;1.83;;;14.40;75.00;;;;;;5019967;28;20029;-87
2022/01/05 11:36:49;;;;;;;5.45;1.83;;;14.30;76.40;;;;;;5020982;28;20097;-80
2022/01/05 11:39:15;;;;;;;6.72;2.40;;;14.20;76.70;;;;;;5034436;28;20101;-84
2022/01/05 11:41:46;;;;;;;3.00;1.70;;;14.10;77.40;;;;;;5035271;28;20040;-82
2022/01/05 11:44:12;;;;;;;8.10;4.45;;;13.40;77.10;;;;;;5035287;28;20029;-83
2022/01/05 11:46:38;;;;;;;5.57;2.90;;;14.00;78.30;;;;;;5005020;28;20014;-83
2022/01/05 11:49:16;;;;;;;7.70;3.42;;;13.90;79.30;;;;;;5022694;28;20048;-85
2022/01/05 11:51:49;;;;;;;7.85;4.00;;;10.50;77.10;;;;;;5053281;28;20101;-83
2022/01/05 11:54:32;;;;;;;36.53;16.13;;;13.70;78.80;;;;;;5046656;28;20086;-83
2022/01/05 11:57:12;;;;;;;8.77;4.65;;;13.90;78.90;;;;;;5008977;28;20087;-83
2022/01/05 11:59:43;;;;;;;9.10;3.50;;;13.80;78.50;;;;;;5029906;28;20036;-84
2022/01/05 12:02:14;;;;;;;1.85;1.30;;;13.80;78.80;;;;;;5029774;28;20032;-82
2022/01/05 12:04:56;;;;;;;3.80;1.70;;;13.80;78.20;;;;;;5049956;28;20052;-84
2022/01/05 12:07:53;;;;;;;3.22;1.73;;;13.80;78.60;;;;;;5047102;28;20009;-84
2022/01/05 12:10:23;;;;;;;;;;;13.80;79.10;;;;;;4963639;28;20050;-82
2022/01/05 12:13:04;;;;;;;11.50;2.80;;;14.00;78.00;;;;;;4961002;28;19906;-81
2022/01/05 12:15:46;;;;;;;6.28;2.35;;;13.90;77.60;;;;;;4959865;28;20105;-79
2022/01/05 12:18:20;;;;;;;3.53;1.45;;;14.20;78.40;;;;;;4960056;28;20038;-84
2022/01/05 12:20:45;;;;;;;7.00;1.35;;;14.10;77.30;;;;;;4959217;28;20494;-78
2022/01/05 12:23:25;;;;;;;5.38;1.73;;;14.10;76.00;;;;;;4960430;28;20218;-82
2022/01/05 12:26:04;;;;;;;8.35;3.35;;;14.20;76.30;;;;;;4960204;28;20320;-79
2022/01/05 12:28:32;;;;;;;4.13;2.00;;;14.20;77.20;;;;;;4959136;28;20206;-81
2022/01/05 12:31:01;;;;;;;6.63;2.15;;;14.10;76.60;;;;;;4959638;28;20046;-79
2022/01/05 12:33:44;;;;;;;4.70;1.40;;;14.10;77.30;;;;;;4959713;28;20034;-82
2022/01/05 12:36:10;;;;;;;6.78;1.80;;;14.10;76.80;;;;;;4960294;28;20023;-80
2022/01/05 12:38:51;;;;;;;4.72;1.73;;;14.10;77.30;;;;;;4960008;28;20062;-87
2022/01/05 12:41:42;;;;;;;2.60;1.40;;;14.10;77.50;;;;;;4960167;28;20067;-85
2022/01/05 12:44:21;;;;;;;5.70;3.58;;;14.10;76.70;;;;;;4959946;28;20027;-81
2022/01/05 12:46:49;;;;;;;15.98;7.05;;;14.10;77.60;;;;;;5002230;28;20033;-84
2022/01/05 12:49:22;;;;;;;36.00;23.40;;;16.60;79.00;;;;;;5041113;28;20028;-86
2022/01/05 12:52:04;;;;;;;6.82;4.57;;;14.10;77.90;;;;;;5041563;28;20041;-82
2022/01/05 12:54:43;;;;;;;17.10;9.82;;;14.10;77.40;;;;;;5041149;28;20055;-84
2022/01/05 12:57:14;;;;;;;5.28;1.90;;;14.10;77.60;;;;;;5041777;28;20249;-85
2022/01/05 12:59:44;;;;;;;2.85;1.10;;;12.80;76.60;;;;;;5023311;28;20025;-85
2022/01/05 13:02:13;;;;;;;3.08;1.38;;;14.10;77.50;;;;;;5040578;28;20017;-82
2022/01/05 13:04:43;;;;;;;4.03;2.20;;;14.00;77.80;;;;;;5040765;28;20028;-83